• Join FlightAware (Why Join?)
  • Login
  • US Flag 
11:53AM EDT


 

Airport Tracker/Info


-or-


 

Live Flight TrackerFlight Track Log ✈ N785JP ✈ 22-Oct-2013 ✈ 5B2 - KBTV

Flight Track Log - Related Links

Times and Time Zones

All times are in EDT time to prevent confusion due to time zone crossing. See the N785JP flight status page for this flight to view local times or setup timezone preferences in your user account.

Time Position Orientation Groundspeed Altitude Reporting Facility
EDT Latitude Longitude Course Direction KTS MPH feet Rate Location/Type
08:12AM 43.0339 -73.8786 103° East 142 163 1,000  Level Boston Center
08:13AM 43.0278 -73.8414 103° East 184 212 2,300 960 Climbing Boston Center
08:14AM 43.0419 -73.8344 20° North 178 205 2,600 720 Climbing Boston Center
08:14AM 43.0717 -73.8125 28° Northeast 207 238 3,000 660 Climbing Boston Center
08:15AM 43.0911 -73.7975 29° Northeast 197 227 3,300 840 Climbing Boston Center
08:15AM 43.1150 -73.7744 35° Northeast 203 234 3,800 840 Climbing Boston Center
08:16AM 43.1386 -73.7594 25° Northeast 198 228 4,200 960 Climbing Boston Center
08:16AM 43.1642 -73.7411 28° Northeast 197 227 4,800 960 Climbing Boston Center
08:17AM 43.1875 -73.7247 27° Northeast 198 228 5,200 840 Climbing Boston Center
08:17AM 43.2136 -73.7053 28° Northeast 196 226 5,700 900 Climbing Boston Center
08:18AM 43.2406 -73.6858 28° Northeast 203 234 6,100 780 Climbing Boston Center
08:19AM 43.2933 -73.6467 28° Northeast 215 247 6,900 1,020 Climbing Boston Center
08:20AM 43.3453 -73.6094 28° Northeast 212 244 8,200 900 Climbing Boston Center
08:21AM 43.4000 -73.5872 16° North 211 243 8,800 420 Climbing Boston Center
08:22AM 43.4639 -73.5647 14° North 231 266 9,100 120 Climbing Boston Center
08:23AM 43.5314 -73.5372 16° North 246 283 9,100  Level Boston Center
08:24AM 43.6000 -73.5097 16° North 255 293 9,100 -60 Level Boston Center
08:25AM 43.6694 -73.4806 17° North 259 298 9,000 -60 Descending Boston Center
08:26AM 43.7375 -73.4531 16° North 256 295 9,000  Level Boston Center
08:27AM 43.8058 -73.4247 17° North 256 295 9,000  Level Boston Center
08:28AM 43.8894 -73.3922 16° North 259 298 9,000  Level Boston Center
08:29AM 43.9583 -73.3647 16° North 258 297 9,000  Level Boston Center
08:30AM 44.0281 -73.3350 17° North 261 300 9,000 -300 Level Boston Center
08:31AM 44.0953 -73.3067 17° North 258 297 8,500 -900 Descending Boston Center
08:32AM 44.1686 -73.2769 16° North 264 304 7,200 -1,260 Descending Boston Center
08:33AM 44.2417 -73.2694 North 262 302 6,000 -1,260 Descending Boston Center
08:34AM 44.3131 -73.2625 North 259 298 4,700 -1,320 Descending Boston Center
08:35AM 44.3828 -73.2572 North 256 295 3,400 -1,200 Descending Boston Center
08:36AM 44.4472 -73.2519 North 244 281 2,300 -840 Descending Boston Center
08:37AM 44.4969 -73.2231 23° Northeast 208 239 1,700 -780 Descending Boston Center
08:38AM 44.4911 -73.1814 101° East 154 177 700 -720 Descending Boston Center
08:39AM 44.4747 -73.1539 130° Southeast 121 139 300 -420 Descending Boston Center